Saga Sky — VRYB8 — position and weather

sailwx.info

Track history (hours):
 
Tides and Currents Weather Stations Pressure Air Temp Water Temp Dewpoint Dewpoint Depression Visibility Wind Speed Wind Dir Waves Ship Positions

Saga Sky

Last reported at 2018-Jul-14 10:43 UTC. Time now 2018-Jul-19 17:22 UTC.
Position N 27°36' W 014°04'.

Length 199 m; draft 8.8 m.

Type: Cargo ship. MMSI: 477198000.

Date/timePositionNaut miles runAvg speedWind from/ knotsBaromVisibWave heightAir tempDewpointWater temp
2018-Jul-14 10:43N 27°36' W 014°04'312.5
2018-Jul-14 10:28N 27°39' W 014°01'613.0
2018-Jul-14 10:00N 27°42' W 013°56'713.0
2018-Jul-14 09:29N 27°47' W 013°50'713.0
2018-Jul-14 08:58N 27°51' W 013°44'612.7
2018-Jul-14 08:27N 27°56' W 013°39'612.6
2018-Jul-14 08:00N 28°00' W 013°36'712.6
2018-Jul-14 07:28N 28°06' W 013°32'612.6
2018-Jul-14 06:57N 28°12' W 013°28'612.4
2018-Jul-14 06:29N 28°16' W 013°24'612.3
2018-Jul-14 05:59N 28°22' W 013°20'612.2
2018-Jul-14 05:30N 28°26' W 013°17'612.3
2018-Jul-14 05:00N 28°32' W 013°13'1112.6
2018-Jul-14 04:08N 28°41' W 013°06'212.4
2018-Jul-14 04:00N 28°42' W 013°05'1912.2
2018-Jul-14 02:25N 28°59' W 012°53'611.8
2018-Jul-14 01:54N 29°04' W 012°50'511.8
2018-Jul-14 01:26N 29°08' W 012°46'611.7
2018-Jul-14 00:58N 29°13' W 012°43'811.9
2018-Jul-14 00:20N 29°19' W 012°38'54711.4
2018-Jul-12 00:22N 36°02' W 005°18'8 8.0
2018-Jul-11 23:25N 36°02' W 005°08'4 8.7
2018-Jul-11 22:58N 36°03' W 005°04'7 8.2
2018-Jul-11 22:06N 36°05' W 004°55'1 8.9
2018-Jul-11 22:00N 36°05' W 004°54'193 9.5
2018-Jul-11 01:46N 37°18' W 001°12'811.5
2018-Jul-11 01:03N 37°25' W 001°06'311.7
2018-Jul-11 00:49N 37°27' W 001°05'711.3
2018-Jul-11 00:11N 37°33' W 001°00'  
2018-Jul-07 12:06N 37°34' W 000°60'5 5.0
2018-Jul-07 11:10N 37°33' W 001°05'0 0.8
2018-Jul-07 10:54N 37°33' W 001°06'0 0.0
2018-Jul-07 09:18N 37°33' W 001°06'0 0.0
2018-Jul-07 09:00N 37°33' W 001°06'0 0.0
2018-Jul-07 07:00N 37°33' W 001°06'0 0.1
2018-Jul-07 06:24N 37°33' W 001°06'0 0.3
2018-Jul-07 06:00N 37°33' W 001°05'1 2.6
2018-Jul-07 05:29N 37°32' W 001°05'6 7.5
2018-Jul-07 04:41N 37°26' W 001°07'1 4.9
2018-Jul-07 04:28N 37°25' W 001°08'4410.6
2018-Jul-07 00:15N 36°51' W 001°43'310.9
2018-Jul-06 23:57N 36°48' W 001°45'710.8
2018-Jul-06 23:16N 36°41' W 001°47'411.6
2018-Jul-06 22:57N 36°43' W 001°44'1 2.3
2018-Jul-06 22:30N 36°44' W 001°43'17212.6
2018-Jul-06 08:51N 36°01' W 005°10'616.2
2018-Jul-06 08:30N 36°01' W 005°17'714.8
2018-Jul-06 08:00N 35°58' W 005°25'2313.3
2018-Jul-06 06:15N 35°54' W 005°54'313.0
2018-Jul-06 06:00N 35°54' W 005°57'713.0
2018-Jul-06 05:30N 35°54' W 006°06'812.3
2018-Jul-06 04:49N 35°54' W 006°16'712.0
2018-Jul-06 04:13N 35°54' W 006°25'412.2
2018-Jul-06 03:52N 35°55' W 006°30'17711.5
2018-Jul-05 12:31N 37°16' W 009°46'013.1
2018-Jul-05 12:30N 37°16' W 009°47'4212.8
2018-Jul-05 09:14N 37°57' W 009°59'412.4
2018-Jul-05 08:53N 38°01' W 009°60'2512.8
2018-Jul-05 06:55N 38°25' W 010°07'713.3
2018-Jul-05 06:23N 38°32' W 010°09'1313.2
2018-Jul-05 05:25N 38°45' W 010°12'1112.7
2018-Jul-05 04:33N 38°56' W 010°12'112.6
2018-Jul-05 04:26N 38°57' W 010°12'612.7
2018-Jul-05 04:00N 39°03' W 010°12'2313.2
2018-Jul-05 02:14N 39°26' W 010°12'  
Track history (hours):
 
Tides and Currents Weather Stations Pressure Air Temp Water Temp Dewpoint Dewpoint Depression Visibility Wind Speed Wind Dir Waves Ship Positions

Saga Sky

Last reported at 2018-Jul-14 10:43 UTC. Time now 2018-Jul-19 17:22 UTC.
Position N 27°36' W 014°04'.

Length 199 m; draft 8.8 m.

Type: Cargo ship. MMSI: 477198000.

Date/timePositionNaut miles runAvg speedWind from/ knotsBaromVisibWave heightAir tempDewpointWater temp
2018-Jul-14 10:43N 27°36' W 014°04'312.5
2018-Jul-14 10:28N 27°39' W 014°01'613.0
2018-Jul-14 10:00N 27°42' W 013°56'713.0
2018-Jul-14 09:29N 27°47' W 013°50'713.0
2018-Jul-14 08:58N 27°51' W 013°44'612.7
2018-Jul-14 08:27N 27°56' W 013°39'612.6
2018-Jul-14 08:00N 28°00' W 013°36'712.6
2018-Jul-14 07:28N 28°06' W 013°32'612.6
2018-Jul-14 06:57N 28°12' W 013°28'612.4
2018-Jul-14 06:29N 28°16' W 013°24'612.3
2018-Jul-14 05:59N 28°22' W 013°20'612.2
2018-Jul-14 05:30N 28°26' W 013°17'612.3
2018-Jul-14 05:00N 28°32' W 013°13'1112.6
2018-Jul-14 04:08N 28°41' W 013°06'212.4
2018-Jul-14 04:00N 28°42' W 013°05'1912.2
2018-Jul-14 02:25N 28°59' W 012°53'611.8
2018-Jul-14 01:54N 29°04' W 012°50'511.8
2018-Jul-14 01:26N 29°08' W 012°46'611.7
2018-Jul-14 00:58N 29°13' W 012°43'811.9
2018-Jul-14 00:20N 29°19' W 012°38'54711.4
2018-Jul-12 00:22N 36°02' W 005°18'8 8.0
2018-Jul-11 23:25N 36°02' W 005°08'4 8.7
2018-Jul-11 22:58N 36°03' W 005°04'7 8.2
2018-Jul-11 22:06N 36°05' W 004°55'1 8.9
2018-Jul-11 22:00N 36°05' W 004°54'193 9.5
2018-Jul-11 01:46N 37°18' W 001°12'811.5
2018-Jul-11 01:03N 37°25' W 001°06'311.7
2018-Jul-11 00:49N 37°27' W 001°05'711.3
2018-Jul-11 00:11N 37°33' W 001°00'  
2018-Jul-07 12:06N 37°34' W 000°60'5 5.0
2018-Jul-07 11:10N 37°33' W 001°05'0 0.8
2018-Jul-07 10:54N 37°33' W 001°06'0 0.0
2018-Jul-07 09:18N 37°33' W 001°06'0 0.0
2018-Jul-07 09:00N 37°33' W 001°06'0 0.0
2018-Jul-07 07:00N 37°33' W 001°06'0 0.1
2018-Jul-07 06:24N 37°33' W 001°06'0 0.3
2018-Jul-07 06:00N 37°33' W 001°05'1 2.6
2018-Jul-07 05:29N 37°32' W 001°05'6 7.5
2018-Jul-07 04:41N 37°26' W 001°07'1 4.9
2018-Jul-07 04:28N 37°25' W 001°08'4410.6
2018-Jul-07 00:15N 36°51' W 001°43'310.9
2018-Jul-06 23:57N 36°48' W 001°45'710.8
2018-Jul-06 23:16N 36°41' W 001°47'411.6
2018-Jul-06 22:57N 36°43' W 001°44'1 2.3
2018-Jul-06 22:30N 36°44' W 001°43'17212.6
2018-Jul-06 08:51N 36°01' W 005°10'616.2
2018-Jul-06 08:30N 36°01' W 005°17'714.8
2018-Jul-06 08:00N 35°58' W 005°25'2313.3
2018-Jul-06 06:15N 35°54' W 005°54'313.0
2018-Jul-06 06:00N 35°54' W 005°57'713.0
2018-Jul-06 05:30N 35°54' W 006°06'812.3
2018-Jul-06 04:49N 35°54' W 006°16'712.0
2018-Jul-06 04:13N 35°54' W 006°25'412.2
2018-Jul-06 03:52N 35°55' W 006°30'17711.5
2018-Jul-05 12:31N 37°16' W 009°46'013.1
2018-Jul-05 12:30N 37°16' W 009°47'4212.8
2018-Jul-05 09:14N 37°57' W 009°59'412.4
2018-Jul-05 08:53N 38°01' W 009°60'2512.8
2018-Jul-05 06:55N 38°25' W 010°07'713.3
2018-Jul-05 06:23N 38°32' W 010°09'1313.2
2018-Jul-05 05:25N 38°45' W 010°12'1112.7
2018-Jul-05 04:33N 38°56' W 010°12'112.6
2018-Jul-05 04:26N 38°57' W 010°12'612.7
2018-Jul-05 04:00N 39°03' W 010°12'2313.2
2018-Jul-05 02:14N 39°26' W 010°12'  

Dump ship's entire track history